Latest Weather Observations for Yeppoon

IDQ60801

Issued at 1:02 pm EST Tuesday 30 May 2017 (issued every 30 minutes, with the page automatically refreshed every 10 minutes)

About weather observations | Map of weather stations | Latest weather observations for QLD | Other Formats
Station Details ID: 033294 Name: YEPPOON THE ESPLANADE Lat: -23.14 Lon: 150.75 Height: 5.5 m
Data from the previous 72 hours. | See also: Recent months at Yeppoon
Date/Time
EST
Temp
°C
App
Temp
°C
Dew
Point
°C
Rel
Hum
%
Delta-T
°C
Wind Press
QNH
hPa
Press
MSL
hPa
Rain since
9am
mm
Dir  Spd
km/h
Gust
km/h
Spd
kts
Gust
kts
30/01:00pm 23.9 23.4 17.9 69 3.7 ESE 17 20 9 11 1019.9 1019.9 0.0
30/12:30pm 24.0 23.6 18.0 69 3.8 ESE 17 26 9 14 1020.1 1020.1 0.0
30/12:00pm 24.0 23.8 18.4 71 3.5 SE 17 24 9 13 1020.2 1020.2 0.0
30/11:30am 23.6 23.2 18.0 71 3.5 SE 17 24 9 13 1020.7 1020.7 0.0
30/11:00am 23.0 23.3 17.9 73 3.2 SSE 13 17 7 9 1021.2 1021.2 0.0
30/10:30am 22.5 23.8 18.5 78 2.5 SSE 9 15 5 8 1021.1 1021.1 0.0
30/10:00am 22.1 23.0 18.5 80 2.3 SSE 11 15 6 8 1021.3 1021.3 0.0
30/09:30am 22.0 23.5 19.0 83 1.9 SSE 9 13 5 7 1021.4 1021.4 0.0
30/09:00am 21.6 23.6 19.2 86 1.5 SSW 7 11 4 6 1020.8 1020.8 0.0
30/08:30am 21.4 23.5 19.0 86 1.5 SSW 6 9 3 5 1021.0 1021.0 0.0
30/08:00am 20.7 23.0 18.6 88 1.3 SSW 4 7 2 4 1020.3 1020.3 0.0
30/07:30am 20.1 21.9 18.2 89 1.2 SSW 6 9 3 5 1020.7 1020.7 0.0
30/07:00am 19.8 21.9 18.1 90 1.0 SSW 4 9 2 5 1020.1 1020.1 0.0
30/06:30am 20.1 21.0 18.4 90 1.1 SSE 11 15 6 8 1019.6 1019.6 0.0
30/06:00am 19.4 21.1 18.1 92 0.8 WNW 6 9 3 5 1019.3 1019.3 0.0
30/05:30am 19.2 20.3 17.9 92 0.8 WNW 9 13 5 7 1020.3 1020.3 0.0
30/05:00am 19.1 20.1 17.8 92 0.8 W 9 11 5 6 1019.0 1019.0 0.0
30/04:30am 19.1 20.5 17.8 92 0.8 WNW 7 9 4 5 1018.8 1018.8 0.0
30/04:00am 19.1 19.7 17.6 91 0.9 WNW 11 11 6 6 1019.2 1019.2 0.0
30/03:30am 19.1 20.6 17.6 91 0.9 WNW 6 9 3 5 1018.9 1018.9 0.0
30/03:00am 19.1 20.0 17.6 91 0.9 NW 9 11 5 6 1019.4 1019.4 0.0
30/02:30am 19.3 20.7 17.8 91 0.9 NW 7 9 4 5 1019.1 1019.1 0.0
30/02:00am 19.4 20.8 17.9 91 0.9 NW 7 9 4 5 1019.1 1019.1 0.0
30/01:30am 19.5 22.2 17.8 90 1.0 CALM 0 0 0 0 1019.5 1019.5 0.0
30/01:00am 19.5 20.9 17.8 90 1.0 NW 7 9 4 5 1019.4 1019.4 0.0
30/12:30am 19.6 21.1 18.1 91 0.9 N 7 9 4 5 1019.3 1019.3 0.0
30/12:00am 19.4 20.9 18.1 92 0.8 NNE 7 9 4 5 1019.1 1019.1 0.0
 
Date/Time
EST
Temp
°C
App
Temp
°C
Dew
Point
°C
Rel
Hum
%
Delta-T
°C
Wind Press
QNH
hPa
Press
MSL
hPa
Rain since
9am
mm
Dir  Spd
km/h
Gust
km/h
Spd
kts
Gust
kts
29/11:30pm 19.4 22.2 17.9 91 0.9 CALM 0 0 0 0 1019.1 1019.1 0.0
29/11:00pm 19.8 22.7 18.3 91 0.9 CALM 0 0 0 0 1019.3 1019.3 0.0
29/10:30pm 19.8 22.7 18.1 90 1.1 CALM 0 0 0 0 1020.0 1020.0 0.0
29/10:00pm 19.8 22.7 18.1 90 1.0 CALM 0 0 0 0 1019.7 1019.7 0.0
29/09:30pm 19.9 22.8 18.2 90 1.1 CALM 0 0 0 0 1019.6 1019.6 0.0
29/09:00pm 20.0 22.4 18.0 88 1.2 NNE 2 7 1 4 1019.5 1019.5 0.0
29/08:30pm 20.4 22.6 18.3 88 1.3 NNE 4 7 2 4 1019.5 1019.5 0.0
29/08:00pm 20.7 23.6 18.3 86 1.5 CALM 0 0 0 0 1019.6 1019.6 0.0
29/07:30pm 20.9 23.8 18.1 84 1.7 CALM 0 0 0 0 1019.3 1019.3 0.0
29/07:00pm 21.6 24.5 18.2 81 2.1 CALM 0 0 0 0 1018.9 1018.9 0.0
29/06:30pm 22.1 23.0 18.3 79 2.4 NNE 11 13 6 7 1018.7 1018.7 0.0
29/06:00pm 22.5 23.2 18.9 80 2.3 NNE 13 15 7 8 1018.3 1018.3 0.0
29/05:30pm 22.5 23.2 18.9 80 2.3 N 13 15 7 8 1018.1 1018.1 0.0
29/05:00pm 22.8 22.9 19.2 80 2.3 NNE 17 17 9 9 1017.6 1017.6 0.0
29/04:30pm 23.1 24.6 18.8 77 2.7 NE 9 11 5 6 1017.5 1017.5 0.0
29/04:00pm 23.3 24.8 18.8 76 2.8 ENE 9 13 5 7 1017.4 1017.4 0.0
29/03:30pm 23.5 25.2 18.4 73 3.2 ENE 7 9 4 5 1017.5 1017.5 0.0
29/03:00pm 23.4 24.8 18.7 75 3.0 ENE 9 11 5 6 1017.4 1017.4 0.0
29/02:30pm 23.9 25.1 19.0 74 3.1 ENE 11 13 6 7 1017.6 1017.6 0.0
29/02:00pm 23.6 24.7 18.9 75 3.0 E 11 13 6 7 1017.6 1017.6 0.0
29/01:30pm 23.5 24.5 18.6 74 3.1 E 11 13 6 7 1017.6 1017.6 0.0
29/01:00pm 23.5 24.1 18.6 74 3.1 E 13 15 7 8 1018.2 1018.2 0.0
29/12:30pm 23.1 23.2 18.4 75 3.0 ENE 15 17 8 9 1018.4 1018.4 0.0
29/12:00pm 23.2 24.1 19.2 78 2.5 E 13 15 7 8 1018.9 1018.9 0.0
29/11:30am 22.8 23.6 19.0 79 2.4 E 13 15 7 8 1019.1 1019.1 0.0
29/11:00am 22.5 23.7 19.1 81 2.2 WNW 11 13 6 7 1019.4 1019.4 0.0
29/10:30am 22.6 24.3 19.4 82 2.0 WNW 9 9 5 5 1019.9 1019.9 0.0
29/10:00am 22.5 24.2 19.3 82 2.0 WNW 9 11 5 6 1020.1 1020.1 0.0
29/09:30am 21.2 23.1 18.6 85 1.6 WNW 6 7 3 4 1020.1 1020.1 0.0
29/09:00am 19.5 20.1 17.8 90 1.0 WNW 11 15 6 8 1020.0 1020.0 0.2
29/08:30am 18.0 18.8 17.2 95 0.5 WNW 9 13 5 7 1019.9 1019.9 0.2
29/08:00am 16.1 15.4 15.3 95 0.5 WNW 13 19 7 10 1019.8 1019.8 0.2
29/07:30am 15.2 14.5 14.4 95 0.5 W 11 15 6 8 1019.3 1019.3 0.2
29/07:00am 15.2 15.0 14.6 96 0.3 W 9 15 5 8 1018.9 1018.9 0.2
29/06:30am 15.1 14.8 14.5 96 0.3 W 9 13 5 7 1018.7 1018.7 0.2
29/06:00am 15.5 15.3 14.7 95 0.5 W 9 13 5 7 1018.6 1018.6 0.2
29/05:30am 15.7 14.8 14.9 95 0.5 W 13 15 7 8 1018.3 1018.3 0.2
29/05:00am 16.1 16.1 15.3 95 0.5 WNW 9 13 5 7 1018.0 1018.0 0.2
29/04:30am 16.9 17.7 16.3 96 0.4 WNW 7 11 4 6 1018.1 1018.1 0.2
29/04:00am 16.9 17.7 16.3 96 0.4 WNW 7 9 4 5 1018.0 1018.0 0.0
29/03:30am 17.6 18.3 17.0 96 0.4 WNW 9 11 5 6 1018.1 1018.1 0.0
29/03:00am 17.1 17.6 16.5 96 0.4 WNW 9 11 5 6 1018.1 1018.1 0.0
29/02:30am 16.7 16.2 15.9 95 0.5 WNW 13 15 7 8 1018.2 1018.2 0.0
29/02:00am 17.2 17.3 16.4 95 0.5 WNW 11 15 6 8 1018.2 1018.2 0.0
29/01:30am 17.2 17.6 16.4 95 0.5 WNW 9 13 5 7 1018.5 1018.5 0.0
29/01:00am 17.4 17.5 16.4 94 0.6 NW 11 11 6 6 1018.6 1018.6 0.0
29/12:30am 17.2 17.5 16.1 93 0.7 NE 9 11 5 6 1018.6 1018.6 0.0
29/12:00am 17.8 18.9 16.7 93 0.7 NE 6 7 3 4 1018.4 1018.4 0.0
 
Date/Time
EST
Temp
°C
App
Temp
°C
Dew
Point
°C
Rel
Hum
%
Delta-T
°C
Wind Press
QNH
hPa
Press
MSL
hPa
Rain since
9am
mm
Dir  Spd
km/h
Gust
km/h
Spd
kts
Gust
kts
28/11:30pm 18.4 20.8 17.1 92 0.8 CALM 0 2 0 1 1018.5 1018.5 0.0
28/11:00pm 18.5 20.9 17.0 91 0.9 CALM 0 0 0 0 1018.5 1018.5 0.0
28/10:30pm 18.8 21.0 16.6 87 1.3 CALM 0 0 0 0 1018.7 1018.7 0.0
28/10:00pm 20.8 21.6 17.2 80 2.2 NE 9 11 5 6 1018.9 1018.9 0.0
28/09:30pm 22.4 23.3 19.2 82 2.0 NE 13 15 7 8 1018.8 1018.8 0.0
28/09:00pm 22.5 23.4 19.3 82 2.0 NE 13 17 7 9 1018.8 1018.8 0.0
28/08:30pm 22.5 23.4 19.3 82 2.0 NE 13 17 7 9 1018.7 1018.7 0.0
28/08:00pm 22.5 22.9 19.1 81 2.2 NE 15 17 8 9 1018.4 1018.4 0.0
28/07:30pm 22.5 22.9 18.9 80 2.3 NE 15 19 8 10 1018.3 1018.3 0.0
28/07:00pm 22.4 22.4 19.0 81 2.1 ENE 17 19 9 10 1018.0 1018.0 0.0
28/06:30pm 22.3 22.7 19.1 82 2.0 ENE 15 17 8 9 1017.7 1017.7 0.0
28/06:00pm 22.4 22.8 19.0 81 2.1 NE 15 17 8 9 1017.3 1017.3 0.0
28/05:30pm 22.5 22.9 18.9 80 2.3 ENE 15 17 8 9 1017.0 1017.0 0.0
28/05:00pm 22.7 23.2 18.3 76 2.8 ENE 13 17 7 9 1016.8 1016.8 0.0
28/04:30pm 23.0 23.9 18.3 75 2.9 ENE 11 15 6 8 1016.6 1016.6 0.0
28/04:00pm 23.1 23.4 18.0 73 3.2 ENE 13 17 7 9 1016.5 1016.5 0.0
28/03:30pm 23.2 23.5 17.9 72 3.3 ENE 13 17 7 9 1016.4 1016.4 0.0
28/03:00pm 23.5 23.9 19.0 76 2.9 E 15 17 8 9 1016.4 1016.4 0.0
28/02:30pm 23.4 23.7 18.7 75 3.0 E 15 19 8 10 1016.4 1016.4 0.0
28/02:00pm 23.7 23.7 19.0 75 3.0 E 17 19 9 10 1016.5 1016.5 0.0
28/01:30pm 23.4 23.5 19.1 77 2.7 E 17 20 9 11 1016.8 1016.8 0.0
28/01:00pm 23.2 23.1 18.7 76 2.8 E 17 19 9 10 1017.1 1017.1 0.0
28/12:30pm 23.1 23.0 18.8 77 2.7 E 17 19 9 10 1017.5 1017.5 0.0
28/12:00pm 23.3 23.5 18.6 75 3.0 ESE 15 20 8 11 1017.9 1017.9 0.0
28/11:30am 23.4 24.0 18.7 75 3.0 E 13 17 7 9 1018.1 1018.1 0.0
28/11:00am 23.0 23.3 18.7 77 2.7 E 15 19 8 10 1018.5 1018.5 0.0
28/10:30am 23.1 23.4 18.8 77 2.7 E 15 19 8 10 1018.8 1018.8 0.0
28/10:00am 23.2 24.3 18.9 77 2.7 ESE 11 15 6 8 1018.9 1018.9 0.0
28/09:30am 22.5 24.4 18.9 80 2.3 WSW 7 13 4 7 1019.0 1019.0 0.0
28/09:00am 21.1 22.9 18.7 86 1.5 WNW 7 11 4 6 1019.0 1019.0 0.0
28/08:30am 19.3 20.2 17.6 90 1.0 WNW 9 11 5 6 1018.9 1018.9 0.0
28/08:00am 17.1 17.8 16.1 94 0.6 WNW 7 11 4 6 1018.8 1018.8 0.0
28/07:30am 15.5 14.9 14.7 95 0.5 WNW 11 15 6 8 1018.6 1018.6 0.0
28/07:00am 15.8 15.3 15.0 95 0.5 WNW 11 13 6 7 1018.4 1018.4 0.0
28/06:30am 15.4 15.1 14.4 94 0.6 WNW 9 11 5 6 1018.2 1018.2 0.0
28/06:00am 16.2 16.6 15.4 95 0.5 WNW 7 9 4 5 1018.1 1018.1 0.0
28/05:30am 16.1 15.7 15.3 95 0.5 WNW 11 15 6 8 1017.8 1017.8 0.0
28/05:00am 16.2 16.2 15.2 94 0.6 WNW 9 15 5 8 1017.6 1017.6 0.0
28/04:30am 17.1 17.1 16.3 95 0.5 WNW 11 15 6 8 1017.7 1017.7 0.0
28/04:00am 17.2 16.9 16.4 95 0.5 WNW 13 15 7 8 1017.7 1017.7 0.0
28/03:30am 16.9 16.4 15.9 94 0.6 WNW 13 17 7 9 1017.7 1017.7 0.0
28/03:00am 17.2 17.2 16.2 94 0.6 WNW 11 13 6 7 1017.9 1017.9 0.0
28/02:30am 17.1 17.0 16.1 94 0.6 WNW 11 15 6 8 1018.1 1018.1 0.0
28/02:00am 16.7 16.5 15.6 93 0.6 WNW 11 13 6 7 1018.4 1018.4 0.0
28/01:30am 17.3 16.9 16.2 93 0.7 WNW 13 15 7 8 1018.7 1018.7 0.0
28/01:00am 17.1 17.2 15.6 91 0.9 E 9 13 5 7 1018.8 1018.8 0.0
28/12:30am 17.6 18.2 15.9 90 1.0 E 7 9 4 5 1018.8 1018.8 0.0
28/12:00am 18.1 20.2 16.3 89 1.1 CALM 0 0 0 0 1019.0 1019.0 0.0
 
Date/Time
EST
Temp
°C
App
Temp
°C
Dew
Point
°C
Rel
Hum
%
Delta-T
°C
Wind Press
QNH
hPa
Press
MSL
hPa
Rain since
9am
mm
Dir  Spd
km/h
Gust
km/h
Spd
kts
Gust
kts
27/11:30pm 18.9 20.0 16.7 87 1.3 E 6 7 3 4 1019.1 1019.1 0.0
27/11:00pm 20.9 22.4 18.8 88 1.3 E 9 17 5 9 1019.2 1019.2 0.0
27/10:30pm 19.6 20.6 16.4 82 1.9 E 6 7 3 4 1019.3 1019.3 0.0
27/10:00pm 21.5 21.9 17.3 77 2.6 E 11 15 6 8 1019.3 1019.3 0.0
27/09:30pm 22.3 22.7 18.1 77 2.6 E 13 19 7 10 1019.5 1019.5 0.0
27/09:00pm 22.2 22.2 18.0 77 2.6 E 15 19 8 10 1019.5 1019.5 0.0
27/08:30pm 22.1 22.0 17.9 77 2.6 ESE 15 20 8 11 1019.4 1019.4 0.0
27/08:00pm 22.3 22.0 18.3 78 2.5 E 17 20 9 11 1019.3 1019.3 0.0
27/07:30pm 22.1 22.0 17.9 77 2.6 E 15 20 8 11 1019.1 1019.1 0.0
27/07:00pm 22.1 22.0 17.9 77 2.6 ESE 15 19 8 10 1018.8 1018.8 0.0
27/06:30pm 22.1 21.9 17.7 76 2.7 E 15 19 8 10 1018.5 1018.5 0.0
27/06:00pm 22.1 22.3 17.7 76 2.7 ESE 13 17 7 9 1018.2 1018.2 0.0
27/05:30pm 22.3 22.5 17.7 75 2.9 E 13 19 7 10 1018.1 1018.1 0.0
27/05:00pm 22.5 22.3 17.6 74 3.0 ESE 15 20 8 11 1017.8 1017.8 0.0
27/04:30pm 22.8 22.6 17.7 73 3.2 E 15 20 8 11 1017.6 1017.6 0.0
27/04:00pm 23.0 22.8 17.5 71 3.4 ESE 15 22 8 12 1017.5 1017.5 0.0
27/03:30pm 23.3 23.1 17.5 70 3.6 ESE 15 20 8 11 1017.4 1017.4 0.0
27/03:00pm 23.5 23.2 18.2 72 3.3 E 17 20 9 11 1017.6 1017.6 0.0
27/02:30pm 23.6 23.0 18.5 73 3.2 ESE 19 24 10 13 1017.8 1017.8 0.0
27/02:00pm 24.0 23.4 18.4 71 3.5 E 19 24 10 13 1017.7 1017.7 0.0
27/01:30pm 23.9 23.6 18.3 71 3.5 E 17 22 9 12 1017.9 1017.9 0.0

Other Formats:

Comma delimited format used in spreadsheet applications
http://www.bom.gov.au/fwo/IDQ60801/IDQ60801.94373.axf

JavaScript Object Notation format (JSON) in row-major order
http://www.bom.gov.au/fwo/IDQ60801/IDQ60801.94373.json